Time;durP1;ratioP1;P1;durP2;ratioP2;P2;SDS_P1;SDS_P2;PMS_P1;PMS_P2;Temp;Humidity;BMP_temperature;BMP_pressure;BME280_temperature;BME280_humidity;BME280_pressure;Samples;Min_cycle;Max_cycle;Signal;HPM_P1;HPM_P2
2021/12/10 00:01:32;;;;;;;60.00;37.08;;;4.50;99.90;;;;;;5133600;27;20283;-65
2021/12/10 00:04:01;;;;;;;68.35;42.03;;;4.50;99.90;;;;;;5117584;27;20313;-65
2021/12/10 00:06:32;;;;;;;72.93;41.67;;;4.50;99.90;;;;;;5126878;27;20237;-65
2021/12/10 00:09:04;;;;;;;70.93;41.40;;;4.50;99.90;;;;;;5132613;27;20237;-65
2021/12/10 00:11:36;;;;;;;65.15;38.83;;;4.50;99.90;;;;;;5133758;27;20229;-65
2021/12/10 00:14:06;;;;;;;73.63;41.00;;;4.50;99.90;;;;;;5133931;27;20236;-64
2021/12/10 00:16:34;;;;;;;65.28;40.67;;;4.60;99.90;;;;;;5133619;27;20237;-65
2021/12/10 00:19:14;;;;;;;68.85;40.33;;;4.50;99.90;;;;;;5133809;27;20699;-65
2021/12/10 00:21:42;;;;;;;66.93;43.05;;;4.50;99.90;;;;;;5131052;27;21013;-65
2021/12/10 00:24:10;;;;;;;70.70;43.97;;;4.50;99.90;;;;;;5133855;27;20218;-65
2021/12/10 00:26:38;;;;;;;72.10;40.92;;;4.40;99.90;;;;;;5126205;27;20569;-65
2021/12/10 00:29:07;;;;;;;63.10;40.53;;;4.40;99.90;;;;;;5126449;27;20221;-65
2021/12/10 00:31:47;;;;;;;68.80;42.10;;;4.40;99.90;;;;;;5128478;27;20258;-65
2021/12/10 00:34:21;;;;;;;59.10;37.30;;;4.40;99.90;;;;;;5127715;27;20301;-65
2021/12/10 00:36:50;;;;;;;70.93;41.20;;;4.40;99.90;;;;;;5125149;27;20222;-65
2021/12/10 00:39:21;;;;;;;66.50;38.95;;;4.40;99.90;;;;;;5127843;27;20233;-65
2021/12/10 00:41:49;;;;;;;67.68;39.90;;;4.40;99.90;;;;;;5131979;27;20214;-65
2021/12/10 00:44:17;;;;;;;61.72;38.55;;;4.40;99.90;;;;;;5130281;27;20210;-65
2021/12/10 00:46:44;;;;;;;58.60;35.28;;;4.40;99.90;;;;;;5133003;27;20226;-65
2021/12/10 00:49:11;;;;;;;68.18;39.90;;;4.50;99.90;;;;;;5132757;27;20209;-65
2021/12/10 00:51:40;;;;;;;69.50;40.55;;;4.50;99.90;;;;;;5127734;27;20249;-65
2021/12/10 00:54:09;;;;;;;65.35;39.30;;;4.40;99.90;;;;;;5125055;27;20234;-65
2021/12/10 00:56:37;;;;;;;66.05;39.00;;;4.40;99.90;;;;;;5133053;27;20222;-65
2021/12/10 00:59:05;;;;;;;63.28;39.92;;;4.40;99.90;;;;;;5132602;27;20232;-65
2021/12/10 01:01:34;;;;;;;70.72;42.55;;;4.40;99.90;;;;;;5132543;27;20218;-65
2021/12/10 01:04:05;;;;;;;65.05;40.95;;;4.40;99.90;;;;;;5131695;27;20232;-65
2021/12/10 01:06:32;;;;;;;67.63;39.85;;;4.40;99.90;;;;;;5132434;27;20230;-65
2021/12/10 01:09:09;;;;;;;68.05;41.85;;;4.40;99.90;;;;;;5133539;27;20229;-65
2021/12/10 01:11:40;;;;;;;66.80;39.78;;;4.40;99.90;;;;;;5132834;27;20218;-65
2021/12/10 01:14:19;;;;;;;67.50;41.00;;;4.40;99.90;;;;;;5133329;27;20238;-65
2021/12/10 01:25:13;;;;;;;67.15;41.67;;;4.30;99.90;;;;;;5119907;27;20225;-65
2021/12/10 01:27:43;;;;;;;62.85;40.85;;;4.30;99.90;;;;;;5132760;27;20217;-65
2021/12/10 01:30:15;;;;;;;71.40;40.53;;;4.30;99.90;;;;;;5133107;27;20225;-65
2021/12/10 01:32:48;;;;;;;70.85;42.97;;;4.20;99.90;;;;;;5131225;27;20800;-65
2021/12/10 01:35:21;;;;;;;73.07;43.72;;;4.20;99.90;;;;;;5132960;27;20237;-65
2021/12/10 01:37:49;;;;;;;70.10;41.80;;;4.20;99.90;;;;;;5119727;27;20289;-65
2021/12/10 01:40:20;;;;;;;68.10;40.75;;;4.20;99.90;;;;;;5132999;27;20225;-65
2021/12/10 01:42:49;;;;;;;71.07;40.72;;;4.20;99.90;;;;;;5132182;27;20236;-65
2021/12/10 01:45:21;;;;;;;73.50;43.00;;;4.30;99.90;;;;;;5133108;27;20222;-65
2021/12/10 01:47:55;;;;;;;69.72;43.15;;;4.30;99.90;;;;;;5121520;27;20218;-65
2021/12/10 01:50:23;;;;;;;67.57;40.13;;;4.30;99.90;;;;;;5132915;27;20229;-65
2021/12/10 01:52:52;;;;;;;67.88;40.95;;;4.30;99.90;;;;;;5132066;27;20214;-65
2021/12/10 01:55:21;;;;;;;69.43;38.83;;;4.30;99.90;;;;;;5132885;27;20218;-65
2021/12/10 01:57:49;;;;;;;74.68;43.53;;;4.30;99.90;;;;;;5133070;27;20301;-65
2021/12/10 02:00:19;;;;;;;68.97;41.00;;;4.30;99.90;;;;;;5132888;27;20237;-65
2021/12/10 02:02:48;;;;;;;65.18;39.75;;;4.30;99.90;;;;;;5133378;27;20225;-65
2021/12/10 02:05:17;;;;;;;72.07;41.95;;;4.30;99.90;;;;;;5136633;27;20237;-65
2021/12/10 02:07:44;;;;;;;83.30;44.80;;;4.30;99.90;;;;;;5136522;27;20305;-65
2021/12/10 02:10:13;;;;;;;69.05;41.85;;;4.30;99.90;;;;;;5136432;27;20236;-65
2021/12/10 02:12:40;;;;;;;66.63;40.25;;;4.30;99.90;;;;;;5136332;27;20316;-65
2021/12/10 02:15:11;;;;;;;64.20;40.50;;;4.30;99.90;;;;;;5136207;27;20237;-63
2021/12/10 02:17:40;;;;;;;71.07;40.05;;;4.40;99.90;;;;;;5136246;27;20221;-64
2021/12/10 02:20:12;;;;;;;70.88;42.38;;;4.40;99.90;;;;;;5136291;27;20221;-63
2021/12/10 02:22:40;;;;;;;69.18;41.40;;;4.40;99.90;;;;;;5130519;27;20211;-63
2021/12/10 02:25:08;;;;;;;69.43;40.53;;;4.40;99.90;;;;;;5136665;27;20214;-64
2021/12/10 02:27:35;;;;;;;66.85;41.67;;;4.40;99.90;;;;;;5136062;27;20226;-63
2021/12/10 02:30:05;;;;;;;70.65;41.90;;;4.40;99.90;;;;;;5131958;27;20225;-64
2021/12/10 02:32:32;;;;;;;65.82;40.53;;;4.40;99.90;;;;;;5124456;27;20233;-63
2021/12/10 02:34:59;;;;;;;72.63;40.33;;;4.40;99.90;;;;;;5136534;27;20536;-63
2021/12/10 02:37:26;;;;;;;64.82;41.30;;;4.40;99.90;;;;;;5136221;27;20218;-63
2021/12/10 02:39:54;;;;;;;88.57;51.00;;;4.40;99.90;;;;;;5135639;27;20222;-64
2021/12/10 02:42:21;;;;;;;71.65;40.50;;;4.40;99.90;;;;;;5135100;27;20229;-63
2021/12/10 02:44:48;;;;;;;68.28;40.35;;;4.40;99.90;;;;;;5135908;27;20229;-63
2021/12/10 02:47:16;;;;;;;65.50;40.67;;;4.50;99.90;;;;;;5128264;27;20218;-63
2021/12/10 02:49:44;;;;;;;68.00;40.17;;;4.50;99.90;;;;;;5135676;27;20233;-63
2021/12/10 02:52:11;;;;;;;67.45;40.15;;;4.50;99.90;;;;;;5135721;27;20236;-64
2021/12/10 02:54:38;;;;;;;68.50;41.42;;;4.50;99.90;;;;;;5135096;27;20297;-64
2021/12/10 02:57:10;;;;;;;68.28;41.38;;;4.50;99.90;;;;;;5122310;27;20218;-64
2021/12/10 02:59:38;;;;;;;67.90;41.15;;;4.50;99.90;;;;;;5135329;27;20226;-64
2021/12/10 03:02:13;;;;;;;69.05;43.45;;;4.50;99.90;;;;;;5135680;27;20221;-63
2021/12/10 03:04:40;;;;;;;67.82;42.20;;;4.40;99.90;;;;;;5134927;27;20249;-64
2021/12/10 03:07:14;;;;;;;68.68;43.20;;;4.40;99.90;;;;;;5134415;27;20236;-64
2021/12/10 03:09:42;;;;;;;65.57;38.42;;;4.40;99.90;;;;;;5132137;27;20505;-63
2021/12/10 03:12:12;;;;;;;66.45;38.10;;;4.40;99.90;;;;;;5133540;27;20713;-64
2021/12/10 03:14:42;;;;;;;60.90;38.80;;;4.50;99.90;;;;;;5132437;27;20218;-64
2021/12/10 03:17:14;;;;;;;63.33;37.53;;;4.40;99.90;;;;;;5133696;27;20236;-64
2021/12/10 03:19:41;;;;;;;64.50;39.22;;;4.40;99.90;;;;;;5119361;27;20233;-64
2021/12/10 03:22:09;;;;;;;59.95;38.63;;;4.40;99.90;;;;;;5134164;27;20226;-63
2021/12/10 03:24:36;;;;;;;59.95;36.30;;;4.40;99.90;;;;;;5134957;27;20249;-64
2021/12/10 03:27:06;;;;;;;56.38;36.70;;;4.40;99.90;;;;;;5135210;27;20217;-64
2021/12/10 03:29:37;;;;;;;61.90;38.65;;;4.40;99.90;;;;;;5134572;27;20233;-64
2021/12/10 03:32:08;;;;;;;63.22;38.28;;;4.40;99.90;;;;;;5123978;27;20679;-64
2021/12/10 03:34:36;;;;;;;62.78;37.17;;;4.40;99.90;;;;;;5134520;27;20233;-63
2021/12/10 03:37:05;;;;;;;57.58;36.55;;;4.40;99.90;;;;;;5135122;27;20214;-64
2021/12/10 03:39:32;;;;;;;70.28;38.83;;;4.50;99.90;;;;;;5134898;27;20241;-64
2021/12/10 03:42:00;;;;;;;64.95;41.20;;;4.50;99.90;;;;;;5134831;27;21009;-64
2021/12/10 03:44:28;;;;;;;68.20;39.85;;;4.40;99.90;;;;;;5135174;27;20571;-64
2021/12/10 03:46:57;;;;;;;59.70;35.35;;;4.40;99.90;;;;;;5133948;27;20229;-64
2021/12/10 03:49:25;;;;;;;65.15;36.28;;;4.40;99.90;;;;;;5134818;27;20551;-64
2021/12/10 03:51:52;;;;;;;59.05;36.20;;;4.40;99.90;;;;;;5134249;27;20226;-64
2021/12/10 03:54:20;;;;;;;64.35;39.92;;;4.40;99.90;;;;;;5134579;27;20222;-64
2021/12/10 03:56:48;;;;;;;66.60;38.15;;;4.40;99.90;;;;;;5134247;27;20233;-64
2021/12/10 03:59:18;;;;;;;68.50;40.60;;;4.40;99.90;;;;;;5134537;27;20687;-64
2021/12/10 04:01:48;;;;;;;69.82;42.53;;;4.40;99.90;;;;;;5129566;27;20229;-64
2021/12/10 04:04:20;;;;;;;63.65;39.15;;;4.40;99.90;;;;;;5132980;27;20671;-64
2021/12/10 04:06:48;;;;;;;73.22;39.63;;;4.40;99.90;;;;;;5133729;27;20229;-64
2021/12/10 04:09:16;;;;;;;70.63;41.13;;;4.40;99.90;;;;;;5133691;27;20225;-64
2021/12/10 04:11:43;;;;;;;62.15;38.92;;;4.40;99.90;;;;;;5134137;27;20537;-64
2021/12/10 04:14:11;;;;;;;59.05;39.00;;;4.40;99.90;;;;;;5134533;27;20226;-64
2021/12/10 04:16:39;;;;;;;62.42;39.95;;;4.50;99.90;;;;;;5134286;27;20252;-64
2021/12/10 04:19:10;;;;;;;67.55;39.58;;;4.50;99.90;;;;;;5134313;27;20572;-64
2021/12/10 04:21:41;;;;;;;76.93;42.63;;;4.50;99.90;;;;;;5134352;27;20218;-64
2021/12/10 04:24:10;;;;;;;67.70;40.13;;;4.50;99.90;;;;;;5134005;27;20250;-64
2021/12/10 04:26:37;;;;;;;65.43;40.90;;;4.50;99.90;;;;;;5134314;27;20226;-64
2021/12/10 04:29:04;;;;;;;68.63;40.50;;;4.50;99.90;;;;;;5133432;27;20656;-64
2021/12/10 04:31:32;;;;;;;59.97;37.70;;;4.50;99.90;;;;;;5126950;27;20215;-64
2021/12/10 04:33:59;;;;;;;68.35;42.13;;;4.50;99.90;;;;;;5129857;27;20591;-63
2021/12/10 04:36:26;;;;;;;68.18;43.65;;;4.50;99.90;;;;;;5134084;27;20222;-63
2021/12/10 04:38:54;;;;;;;68.07;40.33;;;4.50;99.90;;;;;;5133658;27;20228;-64
2021/12/10 04:41:21;;;;;;;73.38;39.92;;;4.50;99.90;;;;;;5133817;27;20229;-64
2021/12/10 04:43:49;;;;;;;62.95;38.15;;;4.40;99.90;;;;;;5133568;27;20226;-64
2021/12/10 04:46:16;;;;;;;66.78;41.08;;;4.40;99.90;;;;;;5129331;27;20230;-64
2021/12/10 04:48:47;;;;;;;65.18;42.25;;;4.40;99.90;;;;;;5131706;27;20562;-64
2021/12/10 04:51:14;;;;;;;67.38;41.63;;;4.40;99.90;;;;;;5133355;27;20218;-64
2021/12/10 04:53:41;;;;;;;67.97;41.17;;;4.40;99.90;;;;;;5133563;27;20229;-64
2021/12/10 04:56:11;;;;;;;68.13;42.55;;;4.30;99.90;;;;;;5133279;27;20275;-65
2021/12/10 04:58:39;;;;;;;68.32;41.45;;;4.40;99.90;;;;;;5133086;27;20236;-64
2021/12/10 05:01:06;;;;;;;68.80;40.45;;;4.40;99.90;;;;;;5131509;27;20745;-64
2021/12/10 05:03:33;;;;;;;70.05;42.80;;;4.40;99.90;;;;;;5132828;27;20240;-64
2021/12/10 05:06:03;;;;;;;68.18;41.08;;;4.40;99.90;;;;;;5133022;27;20221;-64
2021/12/10 05:08:31;;;;;;;68.30;39.05;;;4.40;99.90;;;;;;5133205;27;20297;-64
2021/12/10 05:10:59;;;;;;;67.65;41.80;;;4.40;99.90;;;;;;5132877;27;20233;-63
2021/12/10 05:13:28;;;;;;;67.25;40.65;;;4.40;99.90;;;;;;5131857;27;20251;-63
2021/12/10 05:15:58;;;;;;;69.22;41.58;;;4.40;99.90;;;;;;5131325;27;20222;-63
2021/12/10 05:18:26;;;;;;;65.68;39.95;;;4.40;99.90;;;;;;5131683;27;20279;-64
2021/12/10 05:20:54;;;;;;;64.68;39.95;;;4.40;99.90;;;;;;5131271;27;20229;-64
2021/12/10 05:23:21;;;;;;;70.97;43.35;;;4.40;99.90;;;;;;5131694;27;20742;-64
2021/12/10 05:25:49;;;;;;;63.40;40.08;;;4.30;99.90;;;;;;5132609;27;20516;-64
2021/12/10 05:28:16;;;;;;;64.38;39.40;;;4.30;99.90;;;;;;5133129;27;20225;-64
2021/12/10 05:30:45;;;;;;;75.80;41.25;;;4.40;99.90;;;;;;5133507;27;20680;-64
2021/12/10 05:33:17;;;;;;;69.82;40.33;;;4.30;99.90;;;;;;5132966;27;20217;-64
2021/12/10 05:35:47;;;;;;;70.13;40.88;;;4.30;99.90;;;;;;5133464;27;20226;-64
2021/12/10 05:38:14;;;;;;;75.25;42.85;;;4.30;99.90;;;;;;5135015;27;20532;-64
2021/12/10 05:40:41;;;;;;;76.07;41.75;;;4.30;99.90;;;;;;5137530;27;20221;-64
2021/12/10 05:43:08;;;;;;;74.22;43.85;;;4.40;99.90;;;;;;5137183;27;20233;-64
2021/12/10 05:45:35;;;;;;;70.20;45.38;;;4.30;99.90;;;;;;5137650;27;20233;-64
2021/12/10 05:48:05;;;;;;;74.13;44.28;;;4.40;99.90;;;;;;5137139;27;20233;-64
2021/12/10 05:50:33;;;;;;;73.50;42.50;;;4.30;99.90;;;;;;5137107;27;20237;-64
2021/12/10 05:53:00;;;;;;;67.25;41.78;;;4.40;99.90;;;;;;5137084;27;20229;-64
2021/12/10 05:55:27;;;;;;;73.90;45.30;;;4.40;99.90;;;;;;5137176;27;20691;-64
2021/12/10 05:57:55;;;;;;;67.13;41.30;;;4.40;99.90;;;;;;5136833;27;20228;-64
2021/12/10 06:00:25;;;;;;;66.43;40.13;;;4.40;99.90;;;;;;5137227;27;20229;-64
2021/12/10 06:02:53;;;;;;;65.70;40.67;;;4.40;99.90;;;;;;5137276;27;20236;-64
2021/12/10 06:05:22;;;;;;;72.55;41.78;;;4.40;99.90;;;;;;5136714;27;20214;-64
2021/12/10 06:07:49;;;;;;;65.68;41.83;;;4.50;99.90;;;;;;5137274;27;20226;-64
2021/12/10 06:10:18;;;;;;;69.05;39.75;;;4.50;99.90;;;;;;5136615;27;20241;-64
2021/12/10 06:12:46;;;;;;;71.20;43.17;;;4.50;99.90;;;;;;5136858;27;20222;-64
2021/12/10 06:15:15;;;;;;;66.75;41.45;;;4.50;99.90;;;;;;5136526;27;20229;-64
2021/12/10 06:17:42;;;;;;;74.72;40.20;;;4.50;99.90;;;;;;5136825;27;20256;-64
2021/12/10 06:20:12;;;;;;;67.20;41.33;;;4.50;99.90;;;;;;5136327;27;20621;-64
2021/12/10 06:22:40;;;;;;;71.68;40.40;;;4.50;99.90;;;;;;5136982;27;20221;-64
2021/12/10 06:25:09;;;;;;;68.68;41.88;;;4.50;99.90;;;;;;5136193;27;20230;-64
2021/12/10 06:27:36;;;;;;;70.13;41.22;;;4.50;99.90;;;;;;5136746;27;20222;-64
2021/12/10 06:30:05;;;;;;;69.53;39.88;;;4.50;99.90;;;;;;5135953;27;20237;-64
2021/12/10 06:32:32;;;;;;;71.88;40.30;;;4.50;99.90;;;;;;5136810;27;20237;-64
2021/12/10 06:34:59;;;;;;;66.07;42.30;;;4.50;99.90;;;;;;5135962;27;20237;-64
2021/12/10 06:37:26;;;;;;;77.43;45.03;;;4.50;99.90;;;;;;5136549;27;20391;-64
2021/12/10 06:39:54;;;;;;;73.20;46.05;;;4.50;99.90;;;;;;5136382;27;20241;-64
2021/12/10 06:42:21;;;;;;;75.93;42.95;;;4.40;99.90;;;;;;5136141;27;20229;-64
2021/12/10 06:44:48;;;;;;;69.35;42.15;;;4.40;99.90;;;;;;5136519;27;20227;-64
2021/12/10 06:47:15;;;;;;;71.30;40.00;;;4.50;99.90;;;;;;5135928;27;20229;-64
2021/12/10 06:49:42;;;;;;;76.13;45.53;;;4.50;99.90;;;;;;5135017;27;20247;-64
2021/12/10 06:52:09;;;;;;;70.65;42.10;;;4.40;99.90;;;;;;5135861;27;20226;-64
2021/12/10 06:54:38;;;;;;;81.32;47.40;;;4.40;99.90;;;;;;5136186;27;20233;-64
2021/12/10 06:57:06;;;;;;;81.50;47.15;;;4.50;99.90;;;;;;5135738;27;20222;-64
2021/12/10 06:59:34;;;;;;;80.28;46.42;;;4.50;99.90;;;;;;5136531;27;20233;-64
2021/12/10 07:02:01;;;;;;;70.05;43.30;;;4.50;99.90;;;;;;5135833;27;20563;-64
2021/12/10 07:04:28;;;;;;;79.07;45.25;;;4.50;99.90;;;;;;5136224;27;20560;-64
2021/12/10 07:06:55;;;;;;;76.05;44.38;;;4.50;99.90;;;;;;5136160;27;20577;-64
2021/12/10 07:09:25;;;;;;;78.32;46.00;;;4.50;99.90;;;;;;5135412;27;20823;-64
2021/12/10 07:11:54;;;;;;;75.70;45.33;;;4.50;99.90;;;;;;5136122;27;20233;-65
2021/12/10 07:14:22;;;;;;;82.10;46.00;;;4.50;99.90;;;;;;5135288;27;20228;-64
2021/12/10 07:16:50;;;;;;;75.35;44.80;;;4.50;99.90;;;;;;5135825;27;20225;-64
2021/12/10 07:19:17;;;;;;;77.15;44.35;;;4.50;99.90;;;;;;5135381;27;20564;-64
2021/12/10 07:21:45;;;;;;;78.03;48.15;;;4.50;99.90;;;;;;5135590;27;20233;-64
2021/12/10 07:24:15;;;;;;;82.40;46.78;;;4.50;99.90;;;;;;5135308;27;20668;-65
2021/12/10 07:26:42;;;;;;;81.65;46.55;;;4.50;99.90;;;;;;5135794;27;20229;-65
2021/12/10 07:29:11;;;;;;;77.35;42.63;;;4.50;99.90;;;;;;5135103;27;20233;-65
2021/12/10 07:31:40;;;;;;;77.93;45.92;;;4.50;99.90;;;;;;5135305;27;20230;-64
2021/12/10 07:34:08;;;;;;;77.32;44.05;;;4.50;99.90;;;;;;5135231;27;20710;-65
2021/12/10 07:36:35;;;;;;;83.28;47.85;;;4.50;99.90;;;;;;5135493;27;20672;-64
2021/12/10 07:39:03;;;;;;;78.25;42.83;;;4.50;99.90;;;;;;5134950;27;20222;-65
2021/12/10 07:41:31;;;;;;;84.07;45.15;;;4.50;99.90;;;;;;5135451;27;20697;-64
2021/12/10 07:43:58;;;;;;;76.85;45.28;;;4.50;99.90;;;;;;5135250;27;20687;-65
2021/12/10 07:46:27;;;;;;;71.07;43.05;;;4.50;99.90;;;;;;5134735;27;20229;-64
2021/12/10 07:48:56;;;;;;;71.75;43.20;;;4.50;99.90;;;;;;5135216;27;20222;-65
2021/12/10 07:51:26;;;;;;;74.13;45.10;;;4.50;99.90;;;;;;5134371;27;20500;-65
2021/12/10 07:53:57;;;;;;;73.25;45.28;;;4.50;99.90;;;;;;5135196;27;20225;-64
2021/12/10 07:56:25;;;;;;;75.05;44.45;;;4.50;99.90;;;;;;5134624;27;20217;-65
2021/12/10 07:58:52;;;;;;;77.13;43.97;;;4.50;99.90;;;;;;5135166;27;20218;-65
2021/12/10 08:01:24;;;;;;;73.68;42.08;;;4.60;99.90;;;;;;5133838;27;20234;-65
2021/12/10 08:03:52;;;;;;;72.28;45.70;;;4.60;99.90;;;;;;5134718;27;20228;-65
2021/12/10 08:06:21;;;;;;;73.38;42.55;;;4.60;99.90;;;;;;5133917;27;20218;-65
2021/12/10 08:08:49;;;;;;;81.82;46.63;;;4.60;99.90;;;;;;5134722;27;20228;-65
2021/12/10 08:11:18;;;;;;;77.65;45.53;;;4.60;99.90;;;;;;5134033;27;20233;-64
2021/12/10 08:13:45;;;;;;;79.00;48.15;;;4.60;99.90;;;;;;5134825;27;20226;-64
2021/12/10 08:16:12;;;;;;;78.43;44.20;;;4.60;99.90;;;;;;5134182;27;20676;-65
2021/12/10 08:18:39;;;;;;;66.95;45.40;;;4.60;99.90;;;;;;5134362;27;20232;-65
2021/12/10 08:21:07;;;;;;;79.65;48.55;;;4.60;99.90;;;;;;5134189;27;20237;-64
2021/12/10 08:23:37;;;;;;;74.97;45.40;;;4.60;99.90;;;;;;5134573;27;20229;-65
2021/12/10 08:26:05;;;;;;;83.15;49.10;;;4.60;99.90;;;;;;5134568;27;20327;-65
2021/12/10 08:28:33;;;;;;;81.10;47.22;;;4.70;99.90;;;;;;5134379;27;20217;-64
2021/12/10 08:31:01;;;;;;;74.28;46.00;;;4.70;99.90;;;;;;5134337;27;20225;-64
2021/12/10 08:33:29;;;;;;;88.03;49.15;;;4.70;99.90;;;;;;5133987;27;20221;-64
2021/12/10 08:36:01;;;;;;;82.97;46.28;;;4.70;99.90;;;;;;5134214;27;20694;-65
2021/12/10 08:38:29;;;;;;;79.35;46.95;;;4.70;99.90;;;;;;5133856;27;20275;-65
2021/12/10 08:41:00;;;;;;;79.65;49.45;;;4.70;99.90;;;;;;5134152;27;20240;-65
2021/12/10 08:43:29;;;;;;;79.00;49.20;;;4.70;99.90;;;;;;5133882;27;20566;-65
2021/12/10 08:45:57;;;;;;;87.75;51.17;;;4.70;99.90;;;;;;5134149;27;20229;-64
2021/12/10 08:48:27;;;;;;;82.07;51.25;;;4.80;99.90;;;;;;5133750;27;20229;-65
2021/12/10 08:50:56;;;;;;;85.32;50.05;;;4.80;99.90;;;;;;5134002;27;20241;-65
2021/12/10 08:53:23;;;;;;;77.65;47.70;;;4.70;99.90;;;;;;5133645;27;20226;-65
2021/12/10 08:55:54;;;;;;;89.00;50.20;;;4.70;99.90;;;;;;5134155;27;20240;-65
2021/12/10 08:58:23;;;;;;;80.28;47.40;;;4.70;99.90;;;;;;5133589;27;20218;-65
2021/12/10 09:00:55;;;;;;;82.22;48.15;;;4.70;99.90;;;;;;5133911;27;20226;-65
2021/12/10 09:03:22;;;;;;;77.50;44.88;;;4.80;99.90;;;;;;5133553;27;20218;-65
2021/12/10 09:09:13;;;;;;;77.93;44.03;;;4.80;99.90;;;;;;5116013;27;20328;-65
2021/12/10 09:11:43;;;;;;;85.32;48.28;;;4.80;99.90;;;;;;5113151;27;20225;-65
2021/12/10 09:14:13;;;;;;;85.30;49.28;;;4.80;99.90;;;;;;5112448;27;20264;-65
2021/12/10 09:16:40;;;;;;;92.50;53.53;;;4.80;99.90;;;;;;5113317;27;20223;-65
2021/12/10 09:19:12;;;;;;;92.93;54.20;;;4.80;99.90;;;;;;5112690;27;20609;-65
2021/12/10 09:21:40;;;;;;;92.43;54.00;;;4.80;99.90;;;;;;5113110;27;20223;-64
2021/12/10 09:24:09;;;;;;;87.43;52.97;;;4.80;99.90;;;;;;5112953;27;20727;-64
2021/12/10 09:26:40;;;;;;;80.90;50.08;;;4.80;99.90;;;;;;5113165;27;20335;-64
2021/12/10 09:29:12;;;;;;;84.45;51.50;;;4.90;99.90;;;;;;5112488;27;20223;-64
2021/12/10 09:31:42;;;;;;;88.40;52.60;;;4.90;99.90;;;;;;5113079;27;20244;-64
2021/12/10 09:34:11;;;;;;;81.60;44.65;;;4.90;99.90;;;;;;5112780;27;20248;-64
2021/12/10 09:36:39;;;;;;;81.32;49.05;;;4.90;99.90;;;;;;5113042;27;20214;-64
2021/12/10 09:39:09;;;;;;;81.35;49.53;;;4.90;99.90;;;;;;5112493;27;20240;-64
2021/12/10 09:41:37;;;;;;;71.22;46.00;;;4.90;99.90;;;;;;5113206;27;20305;-64
2021/12/10 09:44:05;;;;;;;71.40;45.42;;;4.80;99.90;;;;;;5112431;27;20567;-64
2021/12/10 09:46:33;;;;;;;75.03;46.97;;;4.90;99.90;;;;;;5113043;27;20301;-64
2021/12/10 09:49:00;;;;;;;89.07;49.88;;;4.90;99.90;;;;;;5112594;27;20228;-64
2021/12/10 09:51:30;;;;;;;78.35;46.80;;;4.90;99.90;;;;;;5112797;27;20588;-64
2021/12/10 09:54:00;;;;;;;74.43;45.13;;;4.90;99.90;;;;;;5112572;27;20218;-64
2021/12/10 09:56:30;;;;;;;76.40;45.63;;;4.90;99.90;;;;;;5112924;27;20226;-64
2021/12/10 09:58:59;;;;;;;80.50;46.28;;;4.90;99.90;;;;;;5112359;27;20222;-64
2021/12/10 10:01:29;;;;;;;83.43;46.25;;;4.90;99.90;;;;;;5112677;27;20240;-64
2021/12/10 10:04:01;;;;;;;87.60;48.47;;;4.90;99.90;;;;;;5112529;27;20226;-64
2021/12/10 10:06:29;;;;;;;81.50;46.28;;;4.90;99.90;;;;;;5112878;27;20222;-64
2021/12/10 10:08:56;;;;;;;83.50;47.63;;;4.90;99.90;;;;;;5112290;27;20216;-64
2021/12/10 10:11:26;;;;;;;87.22;48.83;;;4.90;99.90;;;;;;5112660;27;20697;-64
2021/12/10 10:13:56;;;;;;;72.63;44.75;;;4.90;99.90;;;;;;5112809;27;20229;-64
2021/12/10 10:16:25;;;;;;;77.47;44.13;;;4.90;99.90;;;;;;5112319;27;20982;-64
2021/12/10 10:18:53;;;;;;;74.45;43.88;;;4.90;99.90;;;;;;5112787;27;20241;-65
2021/12/10 10:21:26;;;;;;;75.22;42.75;;;4.90;99.90;;;;;;5111941;27;20564;-64
2021/12/10 10:23:53;;;;;;;79.03;46.03;;;4.90;99.90;;;;;;5113559;27;20233;-64
2021/12/10 10:26:31;;;;;;;77.03;46.08;;;4.90;99.90;;;;;;5115939;27;20218;-64
2021/12/10 10:29:00;;;;;;;70.15;43.97;;;4.90;99.90;;;;;;5116542;27;20230;-64
2021/12/10 10:31:27;;;;;;;73.78;41.50;;;4.90;99.90;;;;;;5115966;27;20855;-64
2021/12/10 10:33:57;;;;;;;83.80;46.03;;;4.90;99.90;;;;;;5116021;27;20233;-64
2021/12/10 10:36:28;;;;;;;81.53;45.78;;;4.90;99.90;;;;;;5115837;27;20232;-64
2021/12/10 10:38:59;;;;;;;78.97;44.53;;;4.80;99.90;;;;;;5115974;27;20233;-64
2021/12/10 10:41:31;;;;;;;73.30;41.88;;;4.80;99.90;;;;;;5115667;27;20684;-64
2021/12/10 10:43:58;;;;;;;71.63;40.80;;;4.80;99.90;;;;;;5116131;27;20222;-64
2021/12/10 10:46:25;;;;;;;73.82;43.78;;;4.90;99.90;;;;;;5115771;27;20222;-64
2021/12/10 10:48:53;;;;;;;85.95;45.63;;;4.90;99.90;;;;;;5116016;27;20259;-65
2021/12/10 10:51:28;;;;;;;82.88;46.35;;;4.90;99.90;;;;;;5115055;27;20296;-64
2021/12/10 10:53:58;;;;;;;77.45;42.65;;;4.90;99.90;;;;;;5115847;27;20688;-64
2021/12/10 10:56:29;;;;;;;78.88;45.88;;;5.00;99.90;;;;;;5115296;27;20219;-64
2021/12/10 10:59:01;;;;;;;87.00;47.42;;;5.00;99.90;;;;;;5115569;27;20226;-64
2021/12/10 11:01:37;;;;;;;74.97;44.45;;;5.00;99.90;;;;;;5115191;27;20545;-64
2021/12/10 11:04:12;;;;;;;78.95;43.75;;;5.10;99.90;;;;;;5115587;27;20691;-64
2021/12/10 11:06:46;;;;;;;78.95;43.45;;;5.10;99.90;;;;;;5115447;27;20279;-64
2021/12/10 11:09:16;;;;;;;77.90;44.75;;;5.10;99.90;;;;;;5115199;27;20218;-64
2021/12/10 11:11:47;;;;;;;71.60;43.38;;;5.10;99.90;;;;;;5115699;27;20561;-64
2021/12/10 11:14:17;;;;;;;90.28;48.75;;;5.10;99.90;;;;;;5115131;27;20214;-64
2021/12/10 11:16:47;;;;;;;78.20;46.28;;;5.10;99.90;;;;;;5115566;27;20587;-64
2021/12/10 11:19:17;;;;;;;70.15;40.17;;;5.10;99.90;;;;;;5114841;27;20642;-64
2021/12/10 11:21:48;;;;;;;63.40;38.50;;;5.10;99.90;;;;;;5115315;27;20236;-64
2021/12/10 11:24:21;;;;;;;64.80;39.22;;;5.10;99.90;;;;;;5114129;27;20692;-64
2021/12/10 11:26:56;;;;;;;60.58;36.60;;;5.10;99.90;;;;;;5113993;27;20284;-64
2021/12/10 11:29:39;;;;;;;65.88;40.80;;;5.20;99.90;;;;;;5113669;27;20228;-64
2021/12/10 11:32:11;;;;;;;68.57;42.47;;;5.20;99.90;;;;;;5112028;27;20230;-64
2021/12/10 11:34:44;;;;;;;65.97;43.25;;;5.20;99.90;;;;;;5112450;27;20222;-64
2021/12/10 11:37:13;;;;;;;70.65;41.55;;;5.20;99.90;;;;;;5111308;27;20571;-64
2021/12/10 11:39:45;;;;;;;79.55;42.35;;;5.20;99.90;;;;;;5113145;27;20635;-64
2021/12/10 11:42:40;;;;;;;67.05;40.65;;;5.10;99.90;;;;;;5132393;27;20221;-64
2021/12/10 11:45:33;;;;;;;75.22;40.97;;;5.10;99.90;;;;;;5123771;27;20605;-64
2021/12/10 11:48:10;;;;;;;70.13;37.78;;;5.20;99.90;;;;;;5114402;27;20305;-64
2021/12/10 11:50:40;;;;;;;66.22;40.15;;;5.20;99.90;;;;;;5114728;27;20619;-64
2021/12/10 11:53:12;;;;;;;73.03;41.90;;;5.20;99.90;;;;;;5114368;27;20219;-64
2021/12/10 11:55:55;;;;;;;64.40;40.20;;;5.20;99.90;;;;;;5114396;27;20695;-64
2021/12/10 11:58:22;;;;;;;69.30;41.17;;;5.20;99.90;;;;;;5114137;27;20223;-64
2021/12/10 12:00:50;;;;;;;67.05;39.38;;;5.20;99.90;;;;;;5114602;27;20329;-65
2021/12/10 12:03:17;;;;;;;59.58;36.80;;;5.20;99.90;;;;;;5114024;27;20231;-64
2021/12/10 12:05:47;;;;;;;66.45;39.30;;;5.20;99.90;;;;;;5114435;27;20241;-64
2021/12/10 12:08:17;;;;;;;66.05;37.05;;;5.20;99.90;;;;;;5113970;27;20801;-64
2021/12/10 12:10:47;;;;;;;66.35;39.25;;;5.20;99.90;;;;;;5114242;27;20711;-64
2021/12/10 12:13:25;;;;;;;68.95;38.25;;;5.20;99.90;;;;;;5113937;27;20222;-64
2021/12/10 12:15:55;;;;;;;68.95;38.90;;;5.20;99.90;;;;;;5114158;27;20219;-64
2021/12/10 12:18:26;;;;;;;64.07;36.83;;;5.30;99.90;;;;;;5113904;27;20229;-65
2021/12/10 12:20:55;;;;;;;56.70;34.95;;;5.30;99.90;;;;;;5114055;27;20223;-64
2021/12/10 12:26:15;;;;;;;60.35;36.33;;;5.30;99.90;;;;;;5113420;27;20592;-64
2021/12/10 12:28:44;;;;;;;69.28;38.45;;;5.40;99.90;;;;;;5131938;27;20368;-64
2021/12/10 12:31:15;;;;;;;71.20;39.25;;;5.30;99.90;;;;;;5134010;27;20222;-64
2021/12/10 12:34:03;;;;;;;69.72;39.92;;;5.40;99.90;;;;;;5134090;27;20222;-64
2021/12/10 12:36:35;;;;;;;63.17;37.20;;;5.50;99.90;;;;;;5133706;27;20222;-64
2021/12/10 12:39:07;;;;;;;66.70;35.95;;;5.40;99.90;;;;;;5134128;27;20228;-64
2021/12/10 12:41:37;;;;;;;66.10;38.30;;;5.50;99.90;;;;;;5133757;27;20649;-64
2021/12/10 12:44:21;;;;;;;67.45;36.90;;;5.50;99.90;;;;;;5134222;27;20226;-64
2021/12/10 12:47:01;;;;;;;57.85;36.65;;;5.50;99.90;;;;;;5120955;27;20218;-64
2021/12/10 12:49:34;;;;;;;61.65;37.13;;;5.40;99.90;;;;;;5134122;27;20214;-64
2021/12/10 12:52:04;;;;;;;71.20;36.17;;;5.40;99.90;;;;;;5133539;27;20655;-64
2021/12/10 12:54:35;;;;;;;65.68;34.35;;;5.30;99.90;;;;;;5133913;27;20218;-64
2021/12/10 12:57:02;;;;;;;65.97;37.38;;;5.40;99.90;;;;;;5133703;27;20214;-64
2021/12/10 12:59:30;;;;;;;62.45;36.83;;;5.30;99.90;;;;;;5133314;27;20576;-64
2021/12/10 13:02:01;;;;;;;60.67;35.67;;;5.30;99.90;;;;;;5133339;27;20226;-64